Terminal Aerodrome Forecast
Issued by NWS

Home | Current Version | Previous Version | Text Only | Print | Product List | Glossary On
Versions: 1 2 3 4 5 6 7 8 9 10 11 12 13 14
000
FTUS45 KGJT 202120 AAA
TAFDRO
TAF AMD
KDRO 202120Z 2021/2118 36016G21KT P6SM BKN110
      TEMPO 2021/2022 -TSRA SCT050CB BKN100
     FM210300 34010G18KT P6SM OVC080
     FM210600 04006KT P6SM BKN080
     FM211200 VRB04KT P6SM BKN080=

USA.gov is the U.S. government's official web portal to all federal, state and local government web resources and services.